createdAt,value
2023-04-16T00:00:58.057Z,102334.13
2023-04-16T00:03:24.942Z,102331.78
2023-04-16T00:05:53.187Z,102334.13
2023-04-16T00:08:19.908Z,102331.91
2023-04-16T00:10:46.601Z,102323.91
2023-04-16T00:13:13.222Z,102333.81
2023-04-16T00:15:39.793Z,102332.22
2023-04-16T00:18:06.457Z,102334.13
2023-04-16T00:20:33.267Z,102333.22
2023-04-16T00:23:02.432Z,102328.59
2023-04-16T00:25:32.075Z,102331.78
2023-04-16T00:27:59.770Z,102338.47
2023-04-16T00:30:35.382Z,102331.91
2023-04-16T00:33:03.160Z,102328.06
2023-04-16T00:35:29.718Z,102332.81
2023-04-16T00:37:56.391Z,102336.69
2023-04-16T00:40:35.071Z,102333.97
2023-04-16T00:43:02.726Z,102330.91
2023-04-16T00:45:29.606Z,102339.03
2023-04-16T00:47:59.271Z,102341.28
2023-04-16T00:50:27.223Z,102339.25
2023-04-16T00:52:53.926Z,102330.31
2023-04-16T00:55:21.509Z,102338.78
2023-04-16T00:57:51.975Z,102334.81
2023-04-16T01:00:19.880Z,102333.22
2023-04-16T01:02:46.673Z,102340.88
2023-04-16T01:05:13.460Z,102326.88
2023-04-16T01:07:40.111Z,102341.69
2023-04-16T01:10:07.433Z,102339.31
2023-04-16T01:12:34.031Z,102345.88
2023-04-16T01:15:03.565Z,102345.41
2023-04-16T01:17:30.406Z,102334.56
2023-04-16T01:20:00.204Z,102330.38
2023-04-16T01:22:31.862Z,102326.88
2023-04-16T01:24:58.510Z,102327.66
2023-04-16T01:27:28.148Z,102332.09
2023-04-16T01:30:05.652Z,102328.59
2023-04-16T01:32:32.675Z,102328.13
2023-04-16T01:34:59.309Z,102344.06
2023-04-16T01:37:25.935Z,102344.53
2023-04-16T01:39:52.661Z,102345.19
2023-04-16T01:42:19.298Z,102346.78
2023-04-16T01:44:47.453Z,102344.88
2023-04-16T01:47:16.901Z,102345.50
2023-04-16T01:49:45.673Z,102340.56
2023-04-16T01:52:12.428Z,102336.75
2023-04-16T01:54:39.063Z,102348.69
2023-04-16T01:57:05.712Z,102344.41
2023-04-16T01:59:32.401Z,102349.84
2023-04-16T02:02:25.583Z,102346.91
2023-04-16T02:04:55.012Z,102340.72
2023-04-16T02:07:21.760Z,102342.28
2023-04-16T02:12:34.151Z,102344.88
2023-04-16T02:15:00.803Z,102338.63
2023-04-16T02:17:27.645Z,102351.56
2023-04-16T02:22:44.178Z,102333.81
2023-04-16T02:25:10.969Z,102340.19
2023-04-16T02:27:37.623Z,102334.75
2023-04-16T02:30:04.649Z,102335.53
2023-04-16T02:32:40.511Z,102340.19
2023-04-16T02:35:07.710Z,102336.78
2023-04-16T02:37:36.454Z,102338.84
2023-04-16T02:40:03.038Z,102338.50
2023-04-16T02:42:35.362Z,102333.88
2023-04-16T02:45:01.985Z,102346.66
2023-04-16T02:47:28.634Z,102340.28
2023-04-16T02:49:55.252Z,102343.00
2023-04-16T02:52:21.917Z,102346.84
2023-04-16T02:54:48.632Z,102349.25
2023-04-16T02:57:15.484Z,102345.41
2023-04-16T03:00:10.116Z,102348.09
2023-04-16T03:02:36.877Z,102351.59
2023-04-16T03:05:04.127Z,102348.44
2023-04-16T03:07:30.797Z,102350.34
2023-04-16T03:09:57.433Z,102345.72
2023-04-16T03:12:24.093Z,102351.50
2023-04-16T03:14:52.617Z,102359.94
2023-04-16T03:17:21.625Z,102359.16
2023-04-16T03:19:49.574Z,102362.19
2023-04-16T03:22:25.558Z,102369.09
2023-04-16T03:24:52.160Z,102365.69
2023-04-16T03:27:18.819Z,102366.94
2023-04-16T03:29:45.446Z,102373.19
2023-04-16T03:32:13.876Z,102368.25
2023-04-16T03:34:43.340Z,102364.72
2023-04-16T03:37:12.121Z,102371.59
2023-04-16T03:39:38.999Z,102367.94
2023-04-16T03:42:05.636Z,102370.66
2023-04-16T03:44:32.247Z,102364.91
2023-04-16T03:46:59.062Z,102369.22
2023-04-16T03:49:25.924Z,102371.13
2023-04-16T03:51:55.071Z,102371.47
2023-04-16T03:54:23.200Z,102371.47
2023-04-16T03:56:54.754Z,102382.78
2023-04-16T03:59:21.462Z,102377.38
2023-04-16T04:01:50.138Z,102381.50
2023-04-16T04:04:16.842Z,102378.78
2023-04-16T04:06:49.061Z,102380.25
2023-04-16T04:09:18.391Z,102376.75
2023-04-16T04:11:45.013Z,102378.00
2023-04-16T04:14:11.782Z,102377.22
2023-04-16T04:16:42.111Z,102377.53
2023-04-16T04:19:09.024Z,102383.91
2023-04-16T04:21:35.890Z,102380.41
2023-04-16T04:24:02.503Z,102382.78
2023-04-16T04:26:29.165Z,102384.69
2023-04-16T04:28:55.819Z,102385.81
2023-04-16T04:31:22.468Z,102380.09
2023-04-16T04:33:49.100Z,102390.78
2023-04-16T04:36:16.087Z,102390.00
2023-04-16T04:38:42.687Z,102393.03
2023-04-16T04:41:09.289Z,102404.88
2023-04-16T04:43:38.371Z,102402.16
2023-04-16T04:46:06.294Z,102405.66
2023-04-16T04:48:32.972Z,102400.53
2023-04-16T04:51:08.822Z,102408.03
2023-04-16T04:53:35.655Z,102403.41
2023-04-16T04:56:12.384Z,102410.44
2023-04-16T04:58:40.786Z,102413.78
2023-04-16T05:01:10.670Z,102407.91
2023-04-16T05:03:39.900Z,102408.84
2023-04-16T05:06:15.112Z,102410.44
2023-04-16T05:12:01.728Z,102416.97
2023-04-16T05:14:28.286Z,102412.00
2023-04-16T05:16:54.949Z,102406.59
2023-04-16T05:19:21.788Z,102411.69
2023-04-16T05:21:48.389Z,102410.09
2023-04-16T05:24:15.205Z,102412.00
2023-04-16T05:26:44.029Z,102414.72
2023-04-16T05:29:10.914Z,102419.69
2023-04-16T05:31:46.756Z,102411.88
2023-04-16T05:34:13.411Z,102409.50
2023-04-16T05:36:40.082Z,102412.22
2023-04-16T05:39:12.315Z,102416.19
2023-04-16T05:41:38.940Z,102413.47
2023-04-16T05:44:05.629Z,102420.00
2023-04-16T05:46:41.261Z,102423.53
2023-04-16T05:49:08.161Z,102419.22
2023-04-16T05:51:35.625Z,102425.56
2023-04-16T05:54:06.092Z,102430.69
2023-04-16T05:56:32.690Z,102432.56
2023-04-16T05:58:59.306Z,102434.19
2023-04-16T06:01:25.800Z,102443.09
2023-04-16T06:03:52.544Z,102437.69
2023-04-16T06:06:19.110Z,102440.72
2023-04-16T06:08:46.074Z,102437.69
2023-04-16T06:11:13.002Z,102442.78
2023-04-16T06:13:39.865Z,102435.59
2023-04-16T06:16:06.763Z,102440.66
2023-04-16T06:18:33.390Z,102449.63
2023-04-16T06:21:00.390Z,102445.47
2023-04-16T06:23:27.491Z,102453.25
2023-04-16T06:25:54.411Z,102451.34
2023-04-16T06:28:21.049Z,102455.97
2023-04-16T06:30:47.820Z,102457.56
2023-04-16T06:33:14.535Z,102466.03
2023-04-16T06:35:41.289Z,102469.53
2023-04-16T06:38:07.939Z,102469.53
2023-04-16T06:40:34.681Z,102466.81
2023-04-16T06:45:46.722Z,102468.41
2023-04-16T06:48:13.398Z,102473.66
2023-04-16T06:50:45.984Z,102470.94
2023-04-16T06:53:12.688Z,102478.09
2023-04-16T06:55:39.295Z,102481.59
2023-04-16T06:58:17.509Z,102474.72
2023-04-16T07:00:44.219Z,102476.31
2023-04-16T07:03:20.013Z,102489.56
2023-04-16T07:05:46.873Z,102491.91
2023-04-16T07:08:13.587Z,102488.88
2023-04-16T07:10:40.288Z,102491.91
2023-04-16T07:13:06.869Z,102490.03
2023-04-16T07:15:33.444Z,102491.13
2023-04-16T07:18:02.776Z,102495.91
2023-04-16T07:20:29.446Z,102504.53
2023-04-16T07:22:56.126Z,102505.16
2023-04-16T07:25:22.859Z,102505.16
2023-04-16T07:27:49.527Z,102507.09
2023-04-16T07:30:16.230Z,102505.50
2023-04-16T07:32:43.021Z,102507.25
2023-04-16T07:35:10.841Z,102510.88
2023-04-16T07:37:38.497Z,102517.91
2023-04-16T07:40:11.867Z,102516.44
2023-04-16T07:42:39.529Z,102521.72
2023-04-16T07:45:06.744Z,102519.81
2023-04-16T07:47:33.465Z,102525.84
2023-04-16T07:50:00.021Z,102522.03
2023-04-16T07:52:26.871Z,102529.19
2023-04-16T07:54:53.662Z,102534.25
2023-04-16T07:57:21.269Z,102530.09
2023-04-16T07:59:47.914Z,102541.75
2023-04-16T08:02:16.768Z,102533.63
2023-04-16T08:04:44.640Z,102538.69
2023-04-16T08:07:21.885Z,102547.31
2023-04-16T08:09:51.110Z,102548.91
2023-04-16T08:12:21.290Z,102555.94
2023-04-16T08:14:58.917Z,102552.41
2023-04-16T08:17:25.428Z,102558.78
2023-04-16T08:19:51.954Z,102554.16
2023-04-16T08:22:18.928Z,102560.03
2023-04-16T08:24:45.683Z,102562.09
2023-04-16T08:27:19.454Z,102565.28
2023-04-16T08:29:59.363Z,102564.16
2023-04-16T08:32:27.454Z,102567.53
2023-04-16T08:34:54.293Z,102567.66
2023-04-16T08:37:20.933Z,102572.44
2023-04-16T08:39:47.574Z,102570.53
2023-04-16T08:42:24.076Z,102563.34
2023-04-16T08:44:55.767Z,102574.69
2023-04-16T08:47:25.597Z,102577.88
2023-04-16T08:49:56.871Z,102577.06
2023-04-16T08:52:31.931Z,102579.28
2023-04-16T08:55:14.075Z,102576.56
2023-04-16T08:57:59.734Z,102577.34
2023-04-16T09:00:27.489Z,102583.25
2023-04-16T09:03:07.203Z,102585.78
2023-04-16T09:05:34.877Z,102573.63
2023-04-16T09:08:01.612Z,102583.19
2023-04-16T09:10:28.551Z,102583.31
2023-04-16T09:12:57.297Z,102589.22
2023-04-16T09:15:25.719Z,102593.53
2023-04-16T09:17:53.154Z,102590.47
2023-04-16T09:20:20.491Z,102588.56
2023-04-16T09:22:47.198Z,102592.66
2023-04-16T09:25:15.274Z,102596.31
2023-04-16T09:27:42.622Z,102591.66
2023-04-16T09:30:26.439Z,102599.81
2023-04-16T09:33:12.857Z,102601.88
2023-04-16T09:36:05.616Z,102604.25
2023-04-16T09:39:03.957Z,102610.16
2023-04-16T09:41:55.447Z,102611.09
2023-04-16T09:45:00.924Z,102614.13
2023-04-16T09:47:29.641Z,102617.66
2023-04-16T09:49:59.150Z,102625.78
2023-04-16T09:52:25.931Z,102620.03
2023-04-16T09:54:54.012Z,102626.25
2023-04-16T09:57:22.202Z,102625.94
2023-04-16T09:59:59.067Z,102627.06
2023-04-16T10:02:27.800Z,102628.50
2023-04-16T10:04:54.921Z,102632.69
2023-04-16T10:07:21.872Z,102631.59
2023-04-16T10:09:49.414Z,102629.31
2023-04-16T10:12:17.173Z,102627.72
2023-04-16T10:14:44.133Z,102628.50
2023-04-16T10:17:11.089Z,102627.97
2023-04-16T10:19:37.996Z,102629.91
2023-04-16T10:22:05.284Z,102635.03
2023-04-16T10:24:34.078Z,102629.69
2023-04-16T10:27:00.947Z,102632.09
2023-04-16T10:29:29.463Z,102630.16
2023-04-16T10:31:56.804Z,102633.56
2023-04-16T10:34:29.046Z,102637.06
2023-04-16T10:36:57.001Z,102636.41
2023-04-16T10:39:27.388Z,102639.47
2023-04-16T10:42:10.637Z,102638.22
2023-04-16T10:44:37.618Z,102642.97
2023-04-16T10:47:11.238Z,102638.00
2023-04-16T10:49:37.811Z,102639.44
2023-04-16T10:52:11.457Z,102634.78
2023-04-16T10:54:38.899Z,102647.22
2023-04-16T10:57:09.514Z,102645.75
2023-04-16T10:59:43.140Z,102640.47
2023-04-16T11:02:14.867Z,102640.78
2023-04-16T11:04:45.042Z,102644.78
2023-04-16T11:07:13.822Z,102642.97
2023-04-16T11:09:47.672Z,102648.34
2023-04-16T11:12:16.677Z,102641.78
2023-04-16T11:14:43.559Z,102640.63
2023-04-16T11:17:10.290Z,102640.16
2023-04-16T11:19:39.810Z,102638.38
2023-04-16T11:22:06.408Z,102643.59
2023-04-16T11:24:33.396Z,102641.69
2023-04-16T11:27:01.593Z,102643.06
2023-04-16T11:29:28.119Z,102648.31
2023-04-16T11:31:55.609Z,102639.47
2023-04-16T11:34:22.363Z,102654.53
2023-04-16T11:36:51.471Z,102655.53
2023-04-16T11:39:19.181Z,102655.66
2023-04-16T11:41:49.629Z,102651.03
2023-04-16T11:44:22.546Z,102653.75
2023-04-16T11:46:50.362Z,102654.75
2023-04-16T11:49:17.492Z,102653.28
2023-04-16T11:51:45.597Z,102656.78
2023-04-16T11:54:21.921Z,102656.78
2023-04-16T11:56:50.685Z,102658.38
2023-04-16T11:59:19.439Z,102659.06
2023-04-16T12:01:49.992Z,102659.38
2023-04-16T12:04:19.589Z,102657.13
2023-04-16T12:07:06.851Z,102661.56
2023-04-16T12:09:37.147Z,102660.44
2023-04-16T12:12:06.404Z,102655.31
2023-04-16T12:14:32.933Z,102663.94
2023-04-16T12:17:21.371Z,102660.69
2023-04-16T12:19:49.668Z,102667.97
2023-04-16T12:22:16.294Z,102674.66
2023-04-16T12:24:42.888Z,102674.06
2023-04-16T12:27:10.060Z,102668.53
2023-04-16T12:29:38.722Z,102666.34
2023-04-16T12:32:05.226Z,102673.03
2023-04-16T12:34:48.446Z,102681.31
2023-04-16T12:37:16.035Z,102689.03
2023-04-16T12:39:42.821Z,102686.63
2023-04-16T12:42:11.335Z,102676.53
2023-04-16T12:44:38.098Z,102677.78
2023-04-16T12:47:05.642Z,102680.66
2023-04-16T12:49:32.486Z,102682.69
2023-04-16T12:51:59.151Z,102685.78
2023-04-16T12:54:28.962Z,102681.56
2023-04-16T12:56:55.540Z,102683.84
2023-04-16T12:59:22.042Z,102685.88
2023-04-16T13:01:48.681Z,102679.97
2023-04-16T13:04:15.916Z,102681.69
2023-04-16T13:06:42.631Z,102672.50
2023-04-16T13:09:09.438Z,102685.00
2023-04-16T13:11:36.520Z,102684.06
2023-04-16T13:14:03.378Z,102681.34
2023-04-16T13:16:29.985Z,102673.31
2023-04-16T13:18:57.628Z,102681.13
2023-04-16T13:21:24.253Z,102674.56
2023-04-16T13:23:50.985Z,102672.78
2023-04-16T13:26:17.656Z,102675.81
2023-04-16T13:28:44.184Z,102674.22
2023-04-16T13:31:10.740Z,102676.59
2023-04-16T13:33:37.977Z,102664.59
2023-04-16T13:36:04.986Z,102675.91
2023-04-16T13:38:31.572Z,102677.94
2023-04-16T13:40:58.156Z,102682.16
2023-04-16T13:43:25.749Z,102683.19
2023-04-16T13:45:52.295Z,102678.09
2023-04-16T13:48:18.974Z,102688.19
2023-04-16T13:50:45.571Z,102678.09
2023-04-16T13:53:12.058Z,102678.22
2023-04-16T13:55:40.997Z,102685.09
2023-04-16T13:58:07.689Z,102677.63
2023-04-16T14:00:34.397Z,102671.94
2023-04-16T14:03:01.449Z,102671.06
2023-04-16T14:05:28.144Z,102675.50
2023-04-16T14:07:54.843Z,102677.91
2023-04-16T14:10:21.704Z,102672.31
2023-04-16T14:12:48.520Z,102670.84
2023-04-16T14:15:15.316Z,102680.84
2023-04-16T14:17:43.570Z,102675.63
2023-04-16T14:20:32.993Z,102666.09
2023-04-16T14:22:59.632Z,102670.66
2023-04-16T14:25:26.410Z,102672.00
2023-04-16T14:27:53.240Z,102673.28
2023-04-16T14:33:00.658Z,102676.75
2023-04-16T14:35:27.524Z,102669.81
2023-04-16T14:37:54.271Z,102672.66
2023-04-16T14:40:25.978Z,102671.88
2023-04-16T14:42:52.770Z,102679.16
2023-04-16T14:45:19.411Z,102681.31
2023-04-16T14:47:47.824Z,102677.25
2023-04-16T14:50:15.702Z,102668.16
2023-04-16T14:52:49.268Z,102677.81
2023-04-16T14:55:15.958Z,102665.31
2023-04-16T14:57:42.769Z,102666.09
2023-04-16T15:00:10.837Z,102659.97
2023-04-16T15:02:37.956Z,102663.16
2023-04-16T15:05:05.055Z,102668.94
2023-04-16T15:07:31.864Z,102664.28
2023-04-16T15:09:59.289Z,102667.91
2023-04-16T15:12:35.204Z,102667.25
2023-04-16T15:15:01.783Z,102655.41
2023-04-16T15:17:28.453Z,102661.91
2023-04-16T15:19:57.439Z,102669.25
2023-04-16T15:22:24.237Z,102653.03
2023-04-16T15:31:55.088Z,102666.44
2023-04-16T15:34:30.496Z,102657.34
2023-04-16T15:36:59.430Z,102658.94
2023-04-16T15:40:26.030Z,102669.16
2023-04-16T15:42:55.973Z,102668.25
2023-04-16T15:48:05.468Z,102667.00
2023-04-16T15:50:32.708Z,102653.03
2023-04-16T15:53:40.941Z,102663.25
2023-04-16T15:56:41.187Z,102664.84
2023-04-16T15:59:09.608Z,102663.63
2023-04-16T16:04:23.804Z,102668.59
2023-04-16T16:08:39.342Z,102667.91
2023-04-16T16:10:37.116Z,102665.75
2023-04-16T16:15:51.867Z,102668.38
2023-04-16T16:18:18.686Z,102667.81
2023-04-16T16:27:00.288Z,102668.59
2023-04-16T16:29:27.326Z,102675.53
2023-04-16T16:32:21.568Z,102665.31
2023-04-16T16:34:57.842Z,102667.81
2023-04-16T16:40:11.738Z,102663.03
2023-04-16T16:43:08.360Z,102667.91
2023-04-16T16:45:37.800Z,102663.72
2023-04-16T16:54:22.618Z,102667.78
2023-04-16T16:56:49.568Z,102675.03
2023-04-16T17:02:22.165Z,102679.31
2023-04-16T17:07:48.478Z,102683.84
2023-04-16T17:10:20.821Z,102692.25
2023-04-16T17:12:55.053Z,102678.72
2023-04-16T17:15:22.901Z,102684.16
2023-04-16T17:17:49.778Z,102684.84
2023-04-16T17:20:16.599Z,102690.63
2023-04-16T17:22:43.457Z,102690.94
2023-04-16T17:25:10.675Z,102690.00
2023-04-16T17:27:37.366Z,102695.03
2023-04-16T17:30:05.584Z,102694.88
2023-04-16T17:32:33.112Z,102699.06
2023-04-16T17:35:01.223Z,102698.00
2023-04-16T17:37:30.368Z,102704.44
2023-04-16T17:40:07.623Z,102709.78
2023-04-16T17:42:35.404Z,102708.06
2023-04-16T17:45:02.827Z,102712.34
2023-04-16T17:47:29.678Z,102714.16
2023-04-16T17:50:00.467Z,102715.94
2023-04-16T17:52:30.379Z,102722.38
2023-04-16T17:57:42.814Z,102726.03
2023-04-16T18:00:11.340Z,102726.22
2023-04-16T18:02:41.174Z,102728.47
2023-04-16T18:05:26.758Z,102727.88
2023-04-16T18:07:53.525Z,102731.22
2023-04-16T18:10:20.523Z,102731.22
2023-04-16T18:12:47.208Z,102723.88
2023-04-16T18:15:13.932Z,102723.75
2023-04-16T18:17:44.889Z,102734.19
2023-04-16T18:20:12.643Z,102740.75
2023-04-16T18:22:39.416Z,102737.91
2023-04-16T18:25:06.813Z,102744.66
2023-04-16T18:27:56.055Z,102745.94
2023-04-16T18:30:26.341Z,102745.00
2023-04-16T18:33:48.835Z,102742.75
2023-04-16T18:36:10.224Z,102751.38
2023-04-16T18:45:00.694Z,102755.75
2023-04-16T18:50:27.147Z,102765.69
2023-04-16T18:52:55.357Z,102771.59
2023-04-16T18:55:22.093Z,102769.19
2023-04-16T19:01:13.187Z,102775.47
2023-04-16T19:03:40.064Z,102769.69
2023-04-16T19:06:06.791Z,102772.41
2023-04-16T19:11:15.152Z,102770.03
2023-04-16T19:13:44.012Z,102773.06
2023-04-16T19:16:12.354Z,102776.09
2023-04-16T19:18:39.471Z,102776.91
2023-04-16T19:21:25.820Z,102781.88
2023-04-16T19:24:12.332Z,102786.19
2023-04-16T19:26:39.080Z,102782.69
2023-04-16T19:29:05.836Z,102779.16
2023-04-16T19:34:38.215Z,102775.81
2023-04-16T19:37:12.496Z,102777.28
2023-04-16T19:39:39.077Z,102775.34
2023-04-16T19:42:13.234Z,102773.41
2023-04-16T19:44:39.949Z,102783.81
2023-04-16T19:47:06.583Z,102776.13
2023-04-16T19:49:34.606Z,102775.81
2023-04-16T19:52:02.574Z,102781.41
2023-04-16T19:54:29.656Z,102785.91
2023-04-16T19:56:58.463Z,102790.69
2023-04-16T19:59:30.745Z,102787.50
2023-04-16T20:02:10.838Z,102783.84
2023-04-16T20:04:44.748Z,102778.88
2023-04-16T20:07:11.492Z,102786.72
2023-04-16T20:09:38.181Z,102781.44
2023-04-16T20:12:13.763Z,102788.94
2023-04-16T20:14:41.973Z,102792.13
2023-04-16T20:17:21.001Z,102794.34
2023-04-16T20:19:49.689Z,102789.91
2023-04-16T20:22:18.288Z,102793.88
2023-04-16T20:24:49.660Z,102792.13
2023-04-16T20:27:17.052Z,102790.53
2023-04-16T20:29:43.784Z,102783.50
2023-04-16T20:32:10.516Z,102783.50
2023-04-16T20:34:40.176Z,102787.34
2023-04-16T20:37:06.883Z,102781.09
2023-04-16T20:39:36.185Z,102784.16
2023-04-16T20:42:15.466Z,102797.72
2023-04-16T20:44:42.360Z,102784.31
2023-04-16T20:47:10.290Z,102789.59
2023-04-16T20:49:38.579Z,102775.41
2023-04-16T20:52:07.418Z,102775.56
2023-04-16T20:54:34.182Z,102775.09
2023-04-16T20:57:02.715Z,102774.28
2023-04-16T20:59:31.324Z,102769.16
2023-04-16T21:01:58.350Z,102774.00
2023-04-16T21:04:25.172Z,102773.16
2023-04-16T21:06:53.892Z,102768.41
2023-04-16T21:09:21.182Z,102767.25
2023-04-16T21:11:48.283Z,102774.63
2023-04-16T21:14:18.535Z,102774.63
2023-04-16T21:16:45.239Z,102771.13
2023-04-16T21:19:12.090Z,102768.41
2023-04-16T21:21:40.039Z,102771.91
2023-04-16T21:24:07.173Z,102772.88
2023-04-16T21:26:39.258Z,102770.00
2023-04-16T21:29:05.974Z,102775.28
2023-04-16T21:31:32.770Z,102767.94
2023-04-16T21:33:59.509Z,102772.88
2023-04-16T21:36:27.695Z,102763.47
2023-04-16T21:39:21.810Z,102775.78
2023-04-16T21:41:48.565Z,102772.28
2023-04-16T21:44:27.735Z,102768.13
2023-04-16T21:46:54.401Z,102772.41
2023-04-16T21:49:21.284Z,102771.63
2023-04-16T21:51:47.922Z,102773.84
2023-04-16T21:54:17.864Z,102769.56
2023-04-16T21:56:47.860Z,102776.09
2023-04-16T21:59:14.436Z,102771.47
2023-04-16T22:01:41.146Z,102783.28
2023-04-16T22:04:09.890Z,102778.97
2023-04-16T22:06:36.646Z,102783.94
2023-04-16T22:09:03.623Z,102769.56
2023-04-16T22:14:15.576Z,102764.75
2023-04-16T22:16:42.214Z,102772.91
2023-04-16T22:19:08.899Z,102771.16
2023-04-16T22:21:46.375Z,102767.81
2023-04-16T22:24:13.023Z,102774.34
2023-04-16T22:26:53.076Z,102767.34
2023-04-16T22:29:19.755Z,102768.44
2023-04-16T22:31:48.630Z,102769.56
2023-04-16T22:34:24.789Z,102762.06
2023-04-16T22:37:04.650Z,102765.91
2023-04-16T22:39:31.746Z,102761.56
2023-04-16T22:41:58.325Z,102769.88
2023-04-16T22:44:25.177Z,102767.97
2023-04-16T22:46:51.989Z,102769.72
2023-04-16T22:49:18.676Z,102770.38
2023-04-16T22:51:45.359Z,102773.09
2023-04-16T22:54:13.994Z,102769.41
2023-04-16T22:56:43.601Z,102772.13
2023-04-16T22:59:10.519Z,102770.53
2023-04-16T23:01:40.685Z,102764.63
2023-04-16T23:04:07.453Z,102760.66
2023-04-16T23:06:34.128Z,102757.59
2023-04-16T23:09:05.292Z,102768.78
2023-04-16T23:11:31.937Z,102770.72
2023-04-16T23:13:59.901Z,102769.91
2023-04-16T23:16:27.373Z,102766.41
2023-04-16T23:18:58.633Z,102767.84
2023-04-16T23:21:26.023Z,102767.53
2023-04-16T23:23:52.721Z,102770.72
2023-04-16T23:26:19.326Z,102772.00
2023-04-16T23:28:46.802Z,102775.00
2023-04-16T23:31:13.652Z,102778.03
2023-04-16T23:33:40.288Z,102779.66
2023-04-16T23:36:07.478Z,102776.28
2023-04-16T23:38:34.479Z,102777.56
2023-04-16T23:41:01.107Z,102778.69
2023-04-16T23:43:27.793Z,102777.91
2023-04-16T23:45:54.561Z,102784.75
2023-04-16T23:48:21.280Z,102784.75
2023-04-16T23:50:47.917Z,102785.06
2023-04-16T23:53:14.584Z,102786.03
2023-04-16T23:55:41.166Z,102785.25
2023-04-16T23:58:07.864Z,102784.41
